Disney Wonder — C6QM8 — position and weather

sailwx.info

Track history (hours):
 
Tides and Currents Weather Stations Pressure Air Temp Water Temp Dewpoint Dewpoint Depression Visibility Wind Speed Wind Dir Waves Ship Positions

Disney Wonder

Last reported at 2019-Jul-22 14:29 UTC. Time now 2019-Jul-22 14:35 UTC.
Position N 49°17' W 123°07'.

Length 301 m; draft 8.2 m.

Type: Passenger vessel. MMSI: 308457000.

Date/timePositionNaut miles runAvg speedWind from/ knotsBaromVisibWave heightAir tempDewpointWater temp
2019-Jul-22 14:29N 49°17' W 123°07'0 0.1
2019-Jul-22 14:00N 49°17' W 123°07'1 1.8
2019-Jul-22 13:30N 49°18' W 123°07'4 8.8
2019-Jul-22 13:00N 49°19' W 123°14'5 9.8
2019-Jul-22 12:30N 49°18' W 123°21'510.5
2019-Jul-22 12:00N 49°19' W 123°29'510.6
2019-Jul-22 11:30N 49°21' W 123°37'510.5
2019-Jul-22 11:00N 49°23' W 123°44'510.0
2019-Jul-22 10:30N 49°24' W 123°51'5 9.6
2019-Jul-22 10:00N 49°26' W 123°58'5 9.9
2019-Jul-22 09:30N 49°28' W 124°06'1110.4
2019-Jul-22 08:27N 49°33' W 124°20'410.0
2019-Jul-22 08:00N 49°35' W 124°26'510.0
2019-Jul-22 07:30N 49°38' W 124°33'510.2
2019-Jul-22 07:00N 49°41' W 124°39'510.2
2019-Jul-22 06:30N 49°45' W 124°45'510.9
2019-Jul-22 06:00N 49°48' W 124°51'611.4
2019-Jul-22 05:30N 49°52' W 124°58'917.9
2019-Jul-22 05:00N 49°57' W 125°09'714.8
2019-Jul-22 04:30N 50°04' W 125°15'713.6
2019-Jul-22 04:00N 50°09' W 125°21'1116.7
2019-Jul-22 03:20N 50°20' W 125°26'8517.1
2019-Jul-21 22:21N 50°51' W 127°31'718.4
2019-Jul-21 21:57N 50°55' W 127°40'818.2
2019-Jul-21 21:31N 51°00' W 127°50'918.5
2019-Jul-21 21:01N 51°06' W 128°02'918.4
2019-Jul-21 20:31N 51°11' W 128°14'918.1
2019-Jul-21 20:00N 51°16' W 128°26'3210.4
2019-Jul-21 20:00N 51°18' W 128°30'611.9 130 / 171020.427.0 16.0 9.0
2019-Jul-21 19:31N 51°22' W 128°37'918.2
2019-Jul-21 19:01N 51°28' W 128°48'917.7
2019-Jul-21 18:30N 51°34' W 128°58'917.7
2019-Jul-21 18:01N 51°40' W 129°09'917.9
2019-Jul-21 17:31N 51°46' W 129°19'918.2
2019-Jul-21 17:01N 51°53' W 129°29'1018.4
2019-Jul-21 16:29N 52°00' W 129°39'918.6
2019-Jul-21 15:59N 52°08' W 129°48'918.9
2019-Jul-21 15:29N 52°15' W 129°57'1018.2
2019-Jul-21 14:56N 52°24' W 130°06'918.7
2019-Jul-21 14:26N 52°32' W 130°14'511.0
2019-Jul-21 14:00N 52°36' W 130°18'2626.4
2019-Jul-21 13:00N 53°00' W 130°36'1814.9 360 / 151017.010.8 16.012.4
2019-Jul-21 11:48N 53°15' W 130°52'1318.1
2019-Jul-21 11:05N 53°27' W 130°59'118.3
2019-Jul-21 11:00N 53°28' W 130°59'918.3
2019-Jul-21 10:30N 53°38' W 130°59'917.9
2019-Jul-21 10:01N 53°47' W 130°59'918.3
2019-Jul-21 09:30N 53°56' W 131°00'918.5
2019-Jul-21 09:01N 54°05' W 131°01'918.4
2019-Jul-21 08:30N 54°14' W 131°01'713.8
2019-Jul-21 08:00N 54°21' W 130°58'917.0
2019-Jul-21 07:30N 54°28' W 131°06'917.3
2019-Jul-21 06:59N 54°36' W 131°14'1117.7
2019-Jul-21 06:22N 54°47' W 131°11'717.9
2019-Jul-21 05:59N 54°53' W 131°09'52 3.2
2019-Jul-20 14:00N 55°30' W 132°12'1212.5 100 / 121020.010.8 14.010.2
2019-Jul-20 13:00N 55°42' W 132°18'71 3.1 260 / 51020.010.8 14.010.2
2019-Jul-19 14:00N 55°42' W 134°24'0 0.0 110 / 111015.010.8 16.412.0
2019-Jul-19 13:00N 55°42' W 134°24'0 0.0 110 / 111015.010.8 16.412.0
2019-Jul-19 12:00N 55°42' W 134°24'12515.9 110 / 111015.010.8 16.412.0
2019-Jul-19 04:10N 54°23' W 131°35'417.8
2019-Jul-19 03:57N 54°22' W 131°29'817.7
2019-Jul-19 03:30N 54°20' W 131°16'917.4
2019-Jul-19 03:00N 54°18' W 131°02'713.6
2019-Jul-19 02:31N 54°11' W 131°02'918.0
2019-Jul-19 02:00N 54°02' W 130°59'917.7
2019-Jul-19 01:30N 53°53' W 130°57'917.6
2019-Jul-19 01:00N 53°45' W 130°54'1817.8
2019-Jul-19 00:01N 53°27' W 130°49'118.4
2019-Jul-18 23:58N 53°26' W 130°49'9018.2
2019-Jul-18 19:02N 52°09' W 129°32'120.2
2019-Jul-18 19:00N 52°09' W 129°32'1019.9
2019-Jul-18 18:30N 52°01' W 129°22'1019.7
2019-Jul-18 18:01N 51°53' W 129°13'1019.9
2019-Jul-18 17:31N 51°45' W 129°03'1020.2
2019-Jul-18 17:00N 51°37' W 128°53'1020.4
2019-Jul-18 16:31N 51°29' W 128°43'1020.4
2019-Jul-18 16:00N 51°21' W 128°33'1020.2
2019-Jul-18 15:30N 51°14' W 128°21'1121.3
2019-Jul-18 15:00N 51°08' W 128°07'1121.6
2019-Jul-18 14:31N 51°01' W 127°53'1322.2
2019-Jul-18 13:56N 50°54' W 127°37'1022.7
2019-Jul-18 13:30N 50°49' W 127°24'1122.1
2019-Jul-18 13:00N 50°45' W 127°07'1421.3
2019-Jul-18 12:21N 50°38' W 126°48'717.0
2019-Jul-18 11:57N 50°33' W 126°41'4916.7
2019-Jul-18 08:59N 50°20' W 125°26'817.1
2019-Jul-18 08:30N 50°12' W 125°22'612.8
2019-Jul-18 08:00N 50°06' W 125°19'612.0
2019-Jul-18 07:30N 50°02' W 125°13'510.1
2019-Jul-18 07:00N 49°57' W 125°09'5 9.5
2019-Jul-18 06:30N 49°55' W 125°03'5 9.5
2019-Jul-18 06:00N 49°51' W 124°58'5 9.6
2019-Jul-18 05:30N 49°48' W 124°52'5 9.2
2019-Jul-18 05:00N 49°46' W 124°46'5 9.3
2019-Jul-18 04:30N 49°43' W 124°40'5 9.3
2019-Jul-18 04:00N 49°40' W 124°35'5 9.9
2019-Jul-18 03:27N 49°37' W 124°28'1416.9
2019-Jul-18 02:38N 49°30' W 124°10'218.7
2019-Jul-18 02:30N 49°28' W 124°07'919.0
2019-Jul-18 02:00N 49°24' W 123°54'918.9
2019-Jul-18 01:30N 49°21' W 123°40'918.5
2019-Jul-18 01:00N 49°19' W 123°26'917.5
2019-Jul-18 00:30N 49°19' W 123°13'4 8.9
2019-Jul-18 00:00N 49°17' W 123°07'0 0.0
2019-Jul-17 22:36N 49°17' W 123°07'0 0.0
2019-Jul-17 22:30N 49°17' W 123°07'0 0.0
2019-Jul-17 21:54N 49°17' W 123°07'0 0.0
2019-Jul-17 21:30N 49°17' W 123°07'0 0.0
2019-Jul-17 20:51N 49°17' W 123°07'0 0.0
2019-Jul-17 20:24N 49°17' W 123°07'0 0.0
2019-Jul-17 19:54N 49°17' W 123°07'0 0.0
2019-Jul-17 19:30N 49°17' W 123°07'0 0.0
2019-Jul-17 18:51N 49°17' W 123°07'0 0.0
2019-Jul-17 18:30N 49°17' W 123°07'0 0.0
2019-Jul-17 18:00N 49°17' W 123°07'0 0.0
2019-Jul-17 17:30N 49°17' W 123°07'0 0.0
2019-Jul-17 17:00N 49°17' W 123°07'0 0.0
2019-Jul-17 16:30N 49°17' W 123°07'0 0.0
2019-Jul-17 16:00N 49°17' W 123°07'0 0.0
2019-Jul-17 15:30N 49°17' W 123°07'0 0.0
2019-Jul-17 14:57N 49°17' W 123°07'0 0.0
2019-Jul-17 14:30N 49°17' W 123°07'0 0.0
2019-Jul-17 14:00N 49°17' W 123°07'1 1.3
2019-Jul-17 13:30N 49°18' W 123°06'4 7.7
2019-Jul-17 13:00N 49°19' W 123°12'4 7.1
2019-Jul-17 12:30N 49°18' W 123°17'3 6.8
2019-Jul-17 12:00N 49°14' W 123°19'3 6.9
2019-Jul-17 11:30N 49°11' W 123°19'3 6.6
2019-Jul-17 11:00N 49°08' W 123°20'3 6.3
2019-Jul-17 10:30N 49°05' W 123°20'3 6.8
2019-Jul-17 10:00N 49°02' W 123°17'3 6.6
2019-Jul-17 09:30N 48°60' W 123°13'3 6.8
2019-Jul-17 09:00N 48°57' W 123°10'3 6.8
2019-Jul-17 08:30N 48°55' W 123°06'3 6.9
2019-Jul-17 08:00N 48°52' W 123°02'3 6.9
2019-Jul-17 07:30N 48°49' W 123°00'3 5.9
2019-Jul-17 07:00N 48°47' W 123°02'3 6.5
2019-Jul-17 06:30N 48°45' W 123°06'3 6.8
2019-Jul-17 06:00N 48°43' W 123°10'3 6.8
2019-Jul-17 05:31N 48°42' W 123°15'3 5.7
2019-Jul-17 05:00N 48°39' W 123°14'3 6.6
2019-Jul-17 04:30N 48°36' W 123°13'4 8.4
2019-Jul-17 04:01N 48°31' W 123°12'4 8.1
2019-Jul-17 03:30N 48°28' W 123°10'4 7.3
2019-Jul-17 03:00N 48°24' W 123°12'4 7.2
2019-Jul-17 02:30N 48°22' W 123°16'4 7.3
2019-Jul-17 02:00N 48°23' W 123°22'3 5.7
2019-Jul-17 01:30N 48°25' W 123°24'0 0.4
2019-Jul-17 00:59N 48°25' W 123°23'0 0.0
2019-Jul-17 00:29N 48°25' W 123°23'0 0.0
2019-Jul-16 23:59N 48°25' W 123°23'0 0.0
2019-Jul-16 23:29N 48°25' W 123°23'0 0.0
2019-Jul-16 22:59N 48°25' W 123°23'0 0.0
2019-Jul-16 22:29N 48°25' W 123°23'0 0.0
2019-Jul-16 21:59N 48°25' W 123°23'0 0.0
2019-Jul-16 21:29N 48°25' W 123°23'0 0.0
2019-Jul-16 20:59N 48°25' W 123°23'0 0.0
2019-Jul-16 20:29N 48°25' W 123°23'0 0.0
2019-Jul-16 19:59N 48°25' W 123°23'0 0.0
2019-Jul-16 19:29N 48°25' W 123°23'0 0.0
2019-Jul-16 18:59N 48°25' W 123°23'0 0.0
2019-Jul-16 18:29N 48°25' W 123°23'0 0.0
2019-Jul-16 17:59N 48°25' W 123°23'0 0.0
2019-Jul-16 17:29N 48°25' W 123°23'2 3.2
2019-Jul-16 17:00N 48°24' W 123°25'5 9.8
2019-Jul-16 16:30N 48°19' W 123°25'510.5
2019-Jul-16 15:59N 48°15' W 123°29'812.6
2019-Jul-16 15:21N 48°13' W 123°41'513.4
2019-Jul-16 15:00N 48°13' W 123°48'714.1
2019-Jul-16 14:30N 48°15' W 123°58'714.5
2019-Jul-16 14:00N 48°18' W 124°08'714.4
2019-Jul-16 13:30N 48°21' W 124°18'714.5
2019-Jul-16 13:00N 48°24' W 124°28'714.8
2019-Jul-16 12:30N 48°27' W 124°38'714.5
2019-Jul-16 12:00N 48°29' W 124°48'916.1
2019-Jul-16 11:26N 48°29' W 125°02'817.8
2019-Jul-16 10:59N 48°30' W 125°14'817.6
2019-Jul-16 10:30N 48°34' W 125°25'917.9
2019-Jul-16 10:00N 48°40' W 125°35'611.6
2019-Jul-16 09:31N 48°44' W 125°41'917.8
2019-Jul-16 09:00N 48°50' W 125°51'917.9
2019-Jul-16 08:30N 48°56' W 126°02'918.4
2019-Jul-16 08:00N 49°02' W 126°12'918.2
2019-Jul-16 07:30N 49°07' W 126°23'918.4
2019-Jul-16 07:00N 49°13' W 126°34'10217.8
2019-Jul-16 01:15N 50°19' W 128°35'417.0
2019-Jul-16 01:00N 50°22' W 128°40'917.9
2019-Jul-16 00:30N 50°27' W 128°51'917.9
2019-Jul-16 00:00N 50°33' W 129°03'917.8
2019-Jul-15 23:30N 50°38' W 129°14'918.3
2019-Jul-15 23:00N 50°45' W 129°24'918.0
2019-Jul-15 22:30N 50°50' W 129°35'917.9
2019-Jul-15 22:00N 50°56' W 129°46'917.9
2019-Jul-15 21:30N 51°02' W 129°57'918.0
2019-Jul-15 21:00N 51°07' W 130°08'  
2019-Jul-13 12:00N 58°42' W 138°24'7414.1 090 / 81019.427.0 14.0 8.0
2019-Jul-13 06:45N 58°19' W 136°10'417.9
2019-Jul-13 06:30N 58°20' W 136°02'918.5
2019-Jul-13 06:00N 58°18' W 135°45'1118.1
2019-Jul-13 05:25N 58°14' W 135°26'  
Track history (hours):
 
Tides and Currents Weather Stations Pressure Air Temp Water Temp Dewpoint Dewpoint Depression Visibility Wind Speed Wind Dir Waves Ship Positions

Disney Wonder

Last reported at 2019-Jul-22 14:29 UTC. Time now 2019-Jul-22 14:35 UTC.
Position N 49°17' W 123°07'.

Length 301 m; draft 8.2 m.

Type: Passenger vessel. MMSI: 308457000.

Date/timePositionNaut miles runAvg speedWind from/ knotsBaromVisibWave heightAir tempDewpointWater temp
2019-Jul-22 14:29N 49°17' W 123°07'0 0.1
2019-Jul-22 14:00N 49°17' W 123°07'1 1.8
2019-Jul-22 13:30N 49°18' W 123°07'4 8.8
2019-Jul-22 13:00N 49°19' W 123°14'5 9.8
2019-Jul-22 12:30N 49°18' W 123°21'510.5
2019-Jul-22 12:00N 49°19' W 123°29'510.6
2019-Jul-22 11:30N 49°21' W 123°37'510.5
2019-Jul-22 11:00N 49°23' W 123°44'510.0
2019-Jul-22 10:30N 49°24' W 123°51'5 9.6
2019-Jul-22 10:00N 49°26' W 123°58'5 9.9
2019-Jul-22 09:30N 49°28' W 124°06'1110.4
2019-Jul-22 08:27N 49°33' W 124°20'410.0
2019-Jul-22 08:00N 49°35' W 124°26'510.0
2019-Jul-22 07:30N 49°38' W 124°33'510.2
2019-Jul-22 07:00N 49°41' W 124°39'510.2
2019-Jul-22 06:30N 49°45' W 124°45'510.9
2019-Jul-22 06:00N 49°48' W 124°51'611.4
2019-Jul-22 05:30N 49°52' W 124°58'917.9
2019-Jul-22 05:00N 49°57' W 125°09'714.8
2019-Jul-22 04:30N 50°04' W 125°15'713.6
2019-Jul-22 04:00N 50°09' W 125°21'1116.7
2019-Jul-22 03:20N 50°20' W 125°26'8517.1
2019-Jul-21 22:21N 50°51' W 127°31'718.4
2019-Jul-21 21:57N 50°55' W 127°40'818.2
2019-Jul-21 21:31N 51°00' W 127°50'918.5
2019-Jul-21 21:01N 51°06' W 128°02'918.4
2019-Jul-21 20:31N 51°11' W 128°14'918.1
2019-Jul-21 20:00N 51°16' W 128°26'3210.4
2019-Jul-21 20:00N 51°18' W 128°30'611.9 130 / 171020.427.0 16.0 9.0
2019-Jul-21 19:31N 51°22' W 128°37'918.2
2019-Jul-21 19:01N 51°28' W 128°48'917.7
2019-Jul-21 18:30N 51°34' W 128°58'917.7
2019-Jul-21 18:01N 51°40' W 129°09'917.9
2019-Jul-21 17:31N 51°46' W 129°19'918.2
2019-Jul-21 17:01N 51°53' W 129°29'1018.4
2019-Jul-21 16:29N 52°00' W 129°39'918.6
2019-Jul-21 15:59N 52°08' W 129°48'918.9
2019-Jul-21 15:29N 52°15' W 129°57'1018.2
2019-Jul-21 14:56N 52°24' W 130°06'918.7
2019-Jul-21 14:26N 52°32' W 130°14'511.0
2019-Jul-21 14:00N 52°36' W 130°18'2626.4
2019-Jul-21 13:00N 53°00' W 130°36'1814.9 360 / 151017.010.8 16.012.4
2019-Jul-21 11:48N 53°15' W 130°52'1318.1
2019-Jul-21 11:05N 53°27' W 130°59'118.3
2019-Jul-21 11:00N 53°28' W 130°59'918.3
2019-Jul-21 10:30N 53°38' W 130°59'917.9
2019-Jul-21 10:01N 53°47' W 130°59'918.3
2019-Jul-21 09:30N 53°56' W 131°00'918.5
2019-Jul-21 09:01N 54°05' W 131°01'918.4
2019-Jul-21 08:30N 54°14' W 131°01'713.8
2019-Jul-21 08:00N 54°21' W 130°58'917.0
2019-Jul-21 07:30N 54°28' W 131°06'917.3
2019-Jul-21 06:59N 54°36' W 131°14'1117.7
2019-Jul-21 06:22N 54°47' W 131°11'717.9
2019-Jul-21 05:59N 54°53' W 131°09'52 3.2
2019-Jul-20 14:00N 55°30' W 132°12'1212.5 100 / 121020.010.8 14.010.2
2019-Jul-20 13:00N 55°42' W 132°18'71 3.1 260 / 51020.010.8 14.010.2
2019-Jul-19 14:00N 55°42' W 134°24'0 0.0 110 / 111015.010.8 16.412.0
2019-Jul-19 13:00N 55°42' W 134°24'0 0.0 110 / 111015.010.8 16.412.0
2019-Jul-19 12:00N 55°42' W 134°24'12515.9 110 / 111015.010.8 16.412.0
2019-Jul-19 04:10N 54°23' W 131°35'417.8
2019-Jul-19 03:57N 54°22' W 131°29'817.7
2019-Jul-19 03:30N 54°20' W 131°16'917.4
2019-Jul-19 03:00N 54°18' W 131°02'713.6
2019-Jul-19 02:31N 54°11' W 131°02'918.0
2019-Jul-19 02:00N 54°02' W 130°59'917.7
2019-Jul-19 01:30N 53°53' W 130°57'917.6
2019-Jul-19 01:00N 53°45' W 130°54'1817.8
2019-Jul-19 00:01N 53°27' W 130°49'118.4
2019-Jul-18 23:58N 53°26' W 130°49'9018.2
2019-Jul-18 19:02N 52°09' W 129°32'120.2
2019-Jul-18 19:00N 52°09' W 129°32'1019.9
2019-Jul-18 18:30N 52°01' W 129°22'1019.7
2019-Jul-18 18:01N 51°53' W 129°13'1019.9
2019-Jul-18 17:31N 51°45' W 129°03'1020.2
2019-Jul-18 17:00N 51°37' W 128°53'1020.4
2019-Jul-18 16:31N 51°29' W 128°43'1020.4
2019-Jul-18 16:00N 51°21' W 128°33'1020.2
2019-Jul-18 15:30N 51°14' W 128°21'1121.3
2019-Jul-18 15:00N 51°08' W 128°07'1121.6
2019-Jul-18 14:31N 51°01' W 127°53'1322.2
2019-Jul-18 13:56N 50°54' W 127°37'1022.7
2019-Jul-18 13:30N 50°49' W 127°24'1122.1
2019-Jul-18 13:00N 50°45' W 127°07'1421.3
2019-Jul-18 12:21N 50°38' W 126°48'717.0
2019-Jul-18 11:57N 50°33' W 126°41'4916.7
2019-Jul-18 08:59N 50°20' W 125°26'817.1
2019-Jul-18 08:30N 50°12' W 125°22'612.8
2019-Jul-18 08:00N 50°06' W 125°19'612.0
2019-Jul-18 07:30N 50°02' W 125°13'510.1
2019-Jul-18 07:00N 49°57' W 125°09'5 9.5
2019-Jul-18 06:30N 49°55' W 125°03'5 9.5
2019-Jul-18 06:00N 49°51' W 124°58'5 9.6
2019-Jul-18 05:30N 49°48' W 124°52'5 9.2
2019-Jul-18 05:00N 49°46' W 124°46'5 9.3
2019-Jul-18 04:30N 49°43' W 124°40'5 9.3
2019-Jul-18 04:00N 49°40' W 124°35'5 9.9
2019-Jul-18 03:27N 49°37' W 124°28'1416.9
2019-Jul-18 02:38N 49°30' W 124°10'218.7
2019-Jul-18 02:30N 49°28' W 124°07'919.0
2019-Jul-18 02:00N 49°24' W 123°54'918.9
2019-Jul-18 01:30N 49°21' W 123°40'918.5
2019-Jul-18 01:00N 49°19' W 123°26'917.5
2019-Jul-18 00:30N 49°19' W 123°13'4 8.9
2019-Jul-18 00:00N 49°17' W 123°07'0 0.0
2019-Jul-17 22:36N 49°17' W 123°07'0 0.0
2019-Jul-17 22:30N 49°17' W 123°07'0 0.0
2019-Jul-17 21:54N 49°17' W 123°07'0 0.0
2019-Jul-17 21:30N 49°17' W 123°07'0 0.0
2019-Jul-17 20:51N 49°17' W 123°07'0 0.0
2019-Jul-17 20:24N 49°17' W 123°07'0 0.0
2019-Jul-17 19:54N 49°17' W 123°07'0 0.0
2019-Jul-17 19:30N 49°17' W 123°07'0 0.0
2019-Jul-17 18:51N 49°17' W 123°07'0 0.0
2019-Jul-17 18:30N 49°17' W 123°07'0 0.0
2019-Jul-17 18:00N 49°17' W 123°07'0 0.0
2019-Jul-17 17:30N 49°17' W 123°07'0 0.0
2019-Jul-17 17:00N 49°17' W 123°07'0 0.0
2019-Jul-17 16:30N 49°17' W 123°07'0 0.0
2019-Jul-17 16:00N 49°17' W 123°07'0 0.0
2019-Jul-17 15:30N 49°17' W 123°07'0 0.0
2019-Jul-17 14:57N 49°17' W 123°07'0 0.0
2019-Jul-17 14:30N 49°17' W 123°07'0 0.0
2019-Jul-17 14:00N 49°17' W 123°07'1 1.3
2019-Jul-17 13:30N 49°18' W 123°06'4 7.7
2019-Jul-17 13:00N 49°19' W 123°12'4 7.1
2019-Jul-17 12:30N 49°18' W 123°17'3 6.8
2019-Jul-17 12:00N 49°14' W 123°19'3 6.9
2019-Jul-17 11:30N 49°11' W 123°19'3 6.6
2019-Jul-17 11:00N 49°08' W 123°20'3 6.3
2019-Jul-17 10:30N 49°05' W 123°20'3 6.8
2019-Jul-17 10:00N 49°02' W 123°17'3 6.6
2019-Jul-17 09:30N 48°60' W 123°13'3 6.8
2019-Jul-17 09:00N 48°57' W 123°10'3 6.8
2019-Jul-17 08:30N 48°55' W 123°06'3 6.9
2019-Jul-17 08:00N 48°52' W 123°02'3 6.9
2019-Jul-17 07:30N 48°49' W 123°00'3 5.9
2019-Jul-17 07:00N 48°47' W 123°02'3 6.5
2019-Jul-17 06:30N 48°45' W 123°06'3 6.8
2019-Jul-17 06:00N 48°43' W 123°10'3 6.8
2019-Jul-17 05:31N 48°42' W 123°15'3 5.7
2019-Jul-17 05:00N 48°39' W 123°14'3 6.6
2019-Jul-17 04:30N 48°36' W 123°13'4 8.4
2019-Jul-17 04:01N 48°31' W 123°12'4 8.1
2019-Jul-17 03:30N 48°28' W 123°10'4 7.3
2019-Jul-17 03:00N 48°24' W 123°12'4 7.2
2019-Jul-17 02:30N 48°22' W 123°16'4 7.3
2019-Jul-17 02:00N 48°23' W 123°22'3 5.7
2019-Jul-17 01:30N 48°25' W 123°24'0 0.4
2019-Jul-17 00:59N 48°25' W 123°23'0 0.0
2019-Jul-17 00:29N 48°25' W 123°23'0 0.0
2019-Jul-16 23:59N 48°25' W 123°23'0 0.0
2019-Jul-16 23:29N 48°25' W 123°23'0 0.0
2019-Jul-16 22:59N 48°25' W 123°23'0 0.0
2019-Jul-16 22:29N 48°25' W 123°23'0 0.0
2019-Jul-16 21:59N 48°25' W 123°23'0 0.0
2019-Jul-16 21:29N 48°25' W 123°23'0 0.0
2019-Jul-16 20:59N 48°25' W 123°23'0 0.0
2019-Jul-16 20:29N 48°25' W 123°23'0 0.0
2019-Jul-16 19:59N 48°25' W 123°23'0 0.0
2019-Jul-16 19:29N 48°25' W 123°23'0 0.0
2019-Jul-16 18:59N 48°25' W 123°23'0 0.0
2019-Jul-16 18:29N 48°25' W 123°23'0 0.0
2019-Jul-16 17:59N 48°25' W 123°23'0 0.0
2019-Jul-16 17:29N 48°25' W 123°23'2 3.2
2019-Jul-16 17:00N 48°24' W 123°25'5 9.8
2019-Jul-16 16:30N 48°19' W 123°25'510.5
2019-Jul-16 15:59N 48°15' W 123°29'812.6
2019-Jul-16 15:21N 48°13' W 123°41'513.4
2019-Jul-16 15:00N 48°13' W 123°48'714.1
2019-Jul-16 14:30N 48°15' W 123°58'714.5
2019-Jul-16 14:00N 48°18' W 124°08'714.4
2019-Jul-16 13:30N 48°21' W 124°18'714.5
2019-Jul-16 13:00N 48°24' W 124°28'714.8
2019-Jul-16 12:30N 48°27' W 124°38'714.5
2019-Jul-16 12:00N 48°29' W 124°48'916.1
2019-Jul-16 11:26N 48°29' W 125°02'817.8
2019-Jul-16 10:59N 48°30' W 125°14'817.6
2019-Jul-16 10:30N 48°34' W 125°25'917.9
2019-Jul-16 10:00N 48°40' W 125°35'611.6
2019-Jul-16 09:31N 48°44' W 125°41'917.8
2019-Jul-16 09:00N 48°50' W 125°51'917.9
2019-Jul-16 08:30N 48°56' W 126°02'918.4
2019-Jul-16 08:00N 49°02' W 126°12'918.2
2019-Jul-16 07:30N 49°07' W 126°23'918.4
2019-Jul-16 07:00N 49°13' W 126°34'10217.8
2019-Jul-16 01:15N 50°19' W 128°35'417.0
2019-Jul-16 01:00N 50°22' W 128°40'917.9
2019-Jul-16 00:30N 50°27' W 128°51'917.9
2019-Jul-16 00:00N 50°33' W 129°03'917.8
2019-Jul-15 23:30N 50°38' W 129°14'918.3
2019-Jul-15 23:00N 50°45' W 129°24'918.0
2019-Jul-15 22:30N 50°50' W 129°35'917.9
2019-Jul-15 22:00N 50°56' W 129°46'917.9
2019-Jul-15 21:30N 51°02' W 129°57'918.0
2019-Jul-15 21:00N 51°07' W 130°08'  
2019-Jul-13 12:00N 58°42' W 138°24'7414.1 090 / 81019.427.0 14.0 8.0
2019-Jul-13 06:45N 58°19' W 136°10'417.9
2019-Jul-13 06:30N 58°20' W 136°02'918.5
2019-Jul-13 06:00N 58°18' W 135°45'1118.1
2019-Jul-13 05:25N 58°14' W 135°26'  

Dump ship's entire track history